^^

..:: Storico WU ::..




Lo storico viene creato da WUnderground con i dati che la stazione Meteomincio invia al loro server. L' aggiornamento viene fatto ogni 5 minuti circa, tuttavia possono esserci intervalli pił ampi a causa di errori, interruzioni di servizio o problemi nell' invio tramite FTP.


Storico stazione MeteoMincio
Giorno Sommario per Agosto 18, 2022 Unità:  Inglese    Metrico   Entrambi
Giorno Settimana Mese Anno
  Max: Min: Media:
Temperatura: 77 °F 68 °F 71.2 °F
Dew Point: 71.6 °F 66.2 °F 67.8 °F
Umidità: 94% 79% 89%
Velocità vento: 23mph 0mph 6.4mph
Raffica: 36mph - -
Direzione- - SE
Pressione: 29.9 in 29.7 in -
Precipitazioni: 1.08 in    
 
 
Tabulato Dati per Agosto 18, 2022
Ora Temperatura Dew Point Pressione Direzione Velocità vento Raffica Umidità Intensità pioggia (oraria) Info solare Situazione
00:04 69.8 °F 68 °F 29.9 in WNW 1.9 mph 2.5 mph 92% 0 in 0.00 W/m2 unknown
00:09 69.8 °F 68 °F 29.9 in NNW 1.9 mph 3.7 mph 92% 0 in 0.00 W/m2 unknown
00:14 69.8 °F 68 °F 29.9 in NNW 3.1 mph 3.7 mph 92% 0 in 0.00 W/m2 unknown
00:19 69.8 °F 68 °F 29.9 in NNW 3.1 mph 3.7 mph 92% 0 in 0.00 W/m2 unknown
00:24 69.8 °F 68 °F 29.9 in NNW 2.5 mph 3.7 mph 92% 0 in 0.00 W/m2 unknown
00:29 69.8 °F 68 °F 29.9 in NNW 2.5 mph 3.7 mph 92% 0 in 0.00 W/m2 unknown
00:34 69.8 °F 68 °F 29.9 in NW 2.5 mph 3.7 mph 92% 0 in 0.00 W/m2 unknown
00:39 69.8 °F 68 °F 29.9 in NNW 2.5 mph 3.7 mph 92% 0 in 0.00 W/m2 unknown
00:44 69.8 °F 68 °F 29.9 in NW 2.5 mph 3.7 mph 91% 0 in 0.00 W/m2 unknown
00:49 69.8 °F 68 °F 29.9 in West 3.1 mph 3.7 mph 91% 0 in 0.00 W/m2 unknown
00:54 69.8 °F 68 °F 29.9 in West 3.1 mph 3.7 mph 92% 0 in 0.00 W/m2 unknown
00:59 69.8 °F 68 °F 29.9 in West 1.9 mph 3.7 mph 92% 0 in 0.00 W/m2 unknown
01:04 69.8 °F 66.2 °F 29.9 in West 1.2 mph 2.5 mph 92% 0 in 0.00 W/m2 unknown
01:09 69.8 °F 68 °F 29.9 in West 1.2 mph 1.9 mph 93% 0 in 0.00 W/m2 unknown
01:14 69.8 °F 68 °F 29.9 in Calm   1.2 mph 93% 0 in 0.00 W/m2 unknown
01:19 69.8 °F 68 °F 29.9 in West 0.6 mph 1.9 mph 93% 0 in 0.00 W/m2 unknown
01:24 69.8 °F 68 °F 29.9 in West 1.9 mph 3.7 mph 93% 0 in 0.00 W/m2 unknown
01:29 69.8 °F 68 °F 29.9 in West 1.2 mph 3.1 mph 93% 0 in 0.00 W/m2 unknown
01:34 69.8 °F 68 °F 29.9 in West 0.6 mph 1.2 mph 93% 0 in 0.00 W/m2 unknown
01:39 69.8 °F 68 °F 29.9 in Calm   1.2 mph 93% 0 in 0.00 W/m2 unknown
01:44 69.8 °F 68 °F 29.9 in Calm   1.2 mph 93% 0 in 0.00 W/m2 unknown
01:49 69.8 °F 68 °F 29.9 in West 0.6 mph 1.2 mph 93% 0 in 0.00 W/m2 unknown
01:54 69.8 °F 68 °F 29.9 in Calm   1.2 mph 93% 0 in 0.00 W/m2 unknown
01:59 69.8 °F 68 °F 29.9 in Calm   1.2 mph 93% 0 in 0.00 W/m2 unknown
02:04 69.8 °F 68 °F 29.9 in West 1.2 mph 2.5 mph 93% 0 in 0.00 W/m2 unknown
02:09 69.8 °F 68 °F 29.9 in WNW 1.9 mph 3.1 mph 93% 0 in 0.00 W/m2 unknown
02:14 69.8 °F 68 °F 29.9 in WNW 1.2 mph 3.7 mph 93% 0 in 0.00 W/m2 unknown
02:19 69.8 °F 68 °F 29.9 in WNW 1.2 mph 2.5 mph 93% 0 in 0.00 W/m2 unknown
02:24 69.8 °F 68 °F 29.9 in Calm   1.2 mph 93% 0 in 0.00 W/m2 unknown
02:29 69.8 °F 68 °F 29.8 in WNW 0.6 mph 1.2 mph 93% 0 in 0.00 W/m2 unknown
02:34 69.8 °F 66.2 °F 29.8 in Calm   1.2 mph 93% 0 in 0.00 W/m2 unknown
02:39 68 °F 66.2 °F 29.8 in Calm   1.2 mph 93% 0 in 0.00 W/m2 unknown
02:44 68 °F 66.2 °F 29.8 in Calm   1.2 mph 93% 0 in 0.00 W/m2 unknown
02:49 68 °F 66.2 °F 29.8 in Calm     93% 0 in 0.00 W/m2 unknown
02:54 68 °F 66.2 °F 29.8 in Calm     93% 0 in 0.00 W/m2 unknown
02:59 68 °F 66.2 °F 29.8 in WNW 1.2 mph 1.9 mph 93% 0 in 0.00 W/m2 unknown
03:04 68 °F 66.2 °F 29.9 in West 2.5 mph 3.7 mph 93% 0 in 0.00 W/m2 unknown
03:09 68 °F 66.2 °F 29.9 in West 1.9 mph 3.7 mph 93% 0 in 0.00 W/m2 unknown
03:14 68 °F 66.2 °F 29.9 in West 1.9 mph 3.7 mph 93% 0 in 0.00 W/m2 unknown
03:19 68 °F 66.2 °F 29.9 in West 1.2 mph 3.1 mph 93% 0 in 0.00 W/m2 unknown
03:24 68 °F 66.2 °F 29.9 in West 0.6 mph 2.5 mph 93% 0 in 0.00 W/m2 unknown
03:29 68 °F 66.2 °F 29.8 in NNW 1.9 mph 2.5 mph 94% 0 in 0.00 W/m2 unknown
03:34 68 °F 66.2 °F 29.8 in North 1.2 mph 2.5 mph 94% 0 in 0.00 W/m2 unknown
03:39 68 °F 66.2 °F 29.8 in NE 1.9 mph 2.5 mph 93% 0 in 0.00 W/m2 unknown
03:44 69.8 °F 66.2 °F 29.8 in NNE 1.2 mph 2.5 mph 93% 0 in 0.00 W/m2 unknown
03:49 69.8 °F 66.2 °F 29.9 in NW 1.9 mph 2.5 mph 93% 0 in 0.00 W/m2 unknown
03:54 69.8 °F 68 °F 29.9 in WNW 2.5 mph 3.7 mph 93% 0 in 0.00 W/m2 unknown
03:59 69.8 °F 66.2 °F 29.9 in West 2.5 mph 3.7 mph 93% 0 in 0.00 W/m2 unknown
04:04 69.8 °F 66.2 °F 29.9 in West 3.1 mph 3.7 mph 93% 0 in 0.00 W/m2 unknown
04:09 69.8 °F 66.2 °F 29.9 in West 4.3 mph 5 mph 93% 0 in 0.00 W/m2 unknown
04:14 69.8 °F 66.2 °F 29.9 in WSW 7.5 mph 9.3 mph 93% 0 in 0.00 W/m2 unknown
04:19 69.8 °F 66.2 °F 29.9 in WSW 8.1 mph 13 mph 93% 0 in 0.00 W/m2 unknown
04:24 69.8 °F 68 °F 29.9 in WSW 8.1 mph 13 mph 93% 0 in 0.00 W/m2 unknown
04:29 69.8 °F 68 °F 29.9 in West 8.7 mph 11.8 mph 93% 0.02 in 0.00 W/m2 unknown
04:34 69.8 °F 68 °F 29.9 in West 8.7 mph 13 mph 93% 0.03 in 0.00 W/m2 unknown
04:39 69.8 °F 68 °F 29.9 in WNW 13 mph 17.4 mph 93% 0.05 in 0.00 W/m2 unknown
04:44 69.8 °F 68 °F 29.9 in WNW 13 mph 17.4 mph 93% 0.05 in 0.00 W/m2 unknown
04:49 69.8 °F 68 °F 29.9 in NNW 6.2 mph 16.8 mph 93% 0.06 in 0.00 W/m2 unknown
04:54 69.8 °F 68 °F 29.9 in ENE 9.9 mph 11.8 mph 93% 0.06 in 0.00 W/m2 unknown
04:59 69.8 °F 68 °F 29.9 in ESE 9.3 mph 11.8 mph 92% 0.06 in 0.00 W/m2 unknown
05:04 69.8 °F 68 °F 29.9 in ESE 9.9 mph 14.9 mph 92% 0.06 in 0.00 W/m2 unknown
05:09 69.8 °F 68 °F 29.9 in ENE 16.2 mph 23 mph 92% 0.06 in 0.00 W/m2 unknown
05:14 69.8 °F 68 °F 29.8 in ENE 18.6 mph 23 mph 92% 0.07 in 0.00 W/m2 unknown
05:19 69.8 °F 66.2 °F 29.8 in ENE 16.8 mph 23 mph 92% 0.07 in 0.00 W/m2 unknown
05:24 69.8 °F 66.2 °F 29.8 in East 15.5 mph 23 mph 92% 0.07 in 0.00 W/m2 unknown
05:29 69.8 °F 66.2 °F 29.8 in East 16.2 mph 23 mph 92% 0.08 in 0.00 W/m2 unknown
05:34 69.8 °F 68 °F 29.8 in East 14.3 mph 19.9 mph 93% 0.08 in 0.00 W/m2 unknown
05:39 69.8 °F 66.2 °F 29.8 in East 11.2 mph 14.3 mph 92% 0.06 in 0.00 W/m2 unknown
05:44 69.8 °F 66.2 °F 29.8 in East 8.1 mph 14.3 mph 92% 0.04 in 0.00 W/m2 unknown
05:49 69.8 °F 68 °F 29.8 in NE 7.5 mph 13 mph 92% 0.03 in 0.00 W/m2 unknown
05:54 69.8 °F 68 °F 29.8 in WNW 8.1 mph 13 mph 92% 0.03 in 0.00 W/m2 unknown
05:59 69.8 °F 68 °F 29.8 in NW 6.8 mph 11.8 mph 92% 0.02 in 0.00 W/m2 unknown
06:04 69.8 °F 68 °F 29.8 in North 5 mph 9.9 mph 92% 0.02 in 0.00 W/m2 unknown
06:09 69.8 °F 68 °F 29.8 in NNE 5.6 mph 6.8 mph 92% 0.02 in 0.00 W/m2 unknown
06:14 69.8 °F 66.2 °F 29.8 in NNE 5.6 mph 6.8 mph 92% 0.02 in 0.00 W/m2 unknown
06:19 69.8 °F 66.2 °F 29.8 in NE 3.7 mph 6.8 mph 92% 0.01 in 0.00 W/m2 unknown
06:24 69.8 °F 66.2 °F 29.8 in NE 3.1 mph 6.2 mph 92% 0.01 in 0.00 W/m2 unknown
06:29 69.8 °F 66.2 °F 29.8 in NE 5 mph 6.2 mph 92% 0.01 in 0.00 W/m2 unknown
06:34 69.8 °F 66.2 °F 29.8 in NNE 4.3 mph 6.2 mph 92% 0 in 0.00 W/m2 unknown
06:39 69.8 °F 66.2 °F 29.8 in NE 2.5 mph 6.2 mph 92% 0 in 0.00 W/m2 unknown
06:44 69.8 °F 66.2 °F 29.8 in ESE 3.1 mph 5 mph 92% 0 in 0.00 W/m2 unknown
06:49 68 °F 66.2 °F 29.8 in SE 2.5 mph 3.7 mph 92% 0 in 5.00 W/m2 unknown
06:54 68 °F 66.2 °F 29.8 in East 4.3 mph 5 mph 92% 0 in 7.00 W/m2 unknown
06:59 68 °F 66.2 °F 29.8 in ESE 5.6 mph 6.8 mph 92% 0 in 11.00 W/m2 unknown
07:04 68 °F 66.2 °F 29.8 in ESE 5 mph 6.8 mph 92% 0 in 19.00 W/m2 unknown
07:09 68 °F 66.2 °F 29.8 in East 3.7 mph 6.8 mph 92% 0 in 32.00 W/m2 unknown
07:14 68 °F 66.2 °F 29.8 in ESE 3.7 mph 6.2 mph 92% 0 in 46.00 W/m2 unknown
07:19 68 °F 66.2 °F 29.8 in ESE 2.5 mph 3.7 mph 92% 0 in 69.00 W/m2 unknown
07:24 68 °F 66.2 °F 29.8 in ESE 3.1 mph 5 mph 92% 0 in 67.00 W/m2 unknown
07:29 69.8 °F 66.2 °F 29.8 in ESE 2.5 mph 5 mph 92% 0 in 62.00 W/m2 unknown
07:34 69.8 °F 66.2 °F 29.8 in SSW 1.2 mph 5 mph 92% 0 in 67.00 W/m2 unknown
07:39 69.8 °F 66.2 °F 29.8 in WSW 1.9 mph 2.5 mph 92% 0 in 70.00 W/m2 unknown
07:44 69.8 °F 68 °F 29.8 in West 3.1 mph 3.7 mph 92% 0 in 77.00 W/m2 unknown
07:49 69.8 °F 68 °F 29.8 in WSW 2.5 mph 3.7 mph 92% 0 in 88.00 W/m2 unknown
07:54 69.8 °F 68 °F 29.8 in West 3.1 mph 3.7 mph 93% 0 in 98.00 W/m2 unknown
07:59 69.8 °F 68 °F 29.8 in NW 2.5 mph 3.7 mph 92% 0 in 114.00 W/m2 unknown
08:04 69.8 °F 68 °F 29.8 in WNW 1.9 mph 3.7 mph 92% 0 in 118.00 W/m2 unknown
08:09 69.8 °F 68 °F 29.9 in WNW 3.1 mph 3.7 mph 92% 0 in 100.00 W/m2 unknown
08:14 69.8 °F 68 °F 29.9 in West 3.7 mph 5 mph 91% 0 in 86.00 W/m2 unknown
08:19 69.8 °F 68 °F 29.9 in WNW 6.8 mph 10.6 mph 91% 0 in 46.00 W/m2 unknown
08:24 69.8 °F 68 °F 29.9 in WNW 6.8 mph 9.9 mph 90% 0 in 49.00 W/m2 unknown
08:29 69.8 °F 68 °F 29.9 in West 5 mph 8.1 mph 90% 0 in 35.00 W/m2 unknown
08:34 69.8 °F 68 °F 29.9 in WSW 5 mph 6.8 mph 91% 0 in 5.00 W/m2 unknown
08:39 69.8 °F 68 °F 29.9 in West 4.3 mph 6.8 mph 90% 0 in 0.00 W/m2 unknown
08:44 69.8 °F 68 °F 29.9 in West 3.7 mph 6.8 mph 91% 0.03 in 0.00 W/m2 unknown
08:49 69.8 °F 68 °F 29.9 in SSW 3.7 mph 5 mph 91% 0.03 in 0.00 W/m2 unknown
08:54 69.8 °F 68 °F 29.9 in SW 10.6 mph 13 mph 92% 0.03 in 0.00 W/m2 unknown
08:59 69.8 °F 68 °F 29.9 in West 15.5 mph 21.7 mph 92% 0.05 in 0.00 W/m2 unknown
09:04 69.8 °F 68 °F 29.9 in NW 14.9 mph 21.7 mph 92% 0.07 in 12.00 W/m2 unknown
09:09 69.8 °F 66.2 °F 29.9 in NW 6.2 mph 19.9 mph 92% 0.08 in 11.00 W/m2 unknown
09:14 69.8 °F 68 °F 29.9 in NNE 5 mph 8.1 mph 93% 0.08 in 11.00 W/m2 unknown
09:19 69.8 °F 66.2 °F 29.9 in NNE 6.8 mph 9.3 mph 93% 0.08 in 11.00 W/m2 unknown
09:24 69.8 °F 66.2 °F 29.9 in NNW 6.2 mph 8.7 mph 93% 0.08 in 5.00 W/m2 unknown
09:29 69.8 °F 66.2 °F 29.9 in North 8.1 mph 11.2 mph 93% 0.08 in 14.00 W/m2 unknown
09:34 68 °F 66.2 °F 29.8 in NNE 11.2 mph 14.3 mph 93% 0.08 in 28.00 W/m2 unknown
09:39 68 °F 66.2 °F 29.8 in NNE 11.8 mph 16.2 mph 93% 0.08 in 56.00 W/m2 unknown
09:44 68 °F 66.2 °F 29.8 in NE 11.8 mph 18.6 mph 93% 0.06 in 63.00 W/m2 unknown
09:49 68 °F 66.2 °F 29.8 in NE 9.9 mph 18 mph 93% 0.05 in 54.00 W/m2 unknown
09:54 68 °F 66.2 °F 29.8 in NE 11.2 mph 16.2 mph 93% 0.05 in 72.00 W/m2 unknown
09:59 68 °F 66.2 °F 29.8 in NE 11.8 mph 17.4 mph 93% 0.05 in 116.00 W/m2 unknown
10:04 69.8 °F 66.2 °F 29.8 in NE 11.8 mph 17.4 mph 93% 0.03 in 109.00 W/m2 unknown
10:09 69.8 °F 66.2 °F 29.8 in ENE 12.4 mph 18 mph 92% 0.01 in 46.00 W/m2 unknown
10:14 69.8 °F 66.2 °F 29.8 in ENE 13 mph 18.6 mph 91% 0 in 54.00 W/m2 unknown
10:19 69.8 °F 66.2 °F 29.8 in NE 9.3 mph 18 mph 90% 0 in 53.00 W/m2 unknown
10:24 69.8 °F 66.2 °F 29.8 in East 9.3 mph 14.9 mph 90% 0 in 51.00 W/m2 unknown
10:29 69.8 °F 66.2 °F 29.8 in ENE 10.6 mph 14.9 mph 90% 0 in 49.00 W/m2 unknown
10:34 69.8 °F 66.2 °F 29.8 in ENE 10.6 mph 14.9 mph 89% 0 in 42.00 W/m2 unknown
10:39 69.8 °F 66.2 °F 29.8 in ENE 10.6 mph 14.9 mph 90% 0 in 70.00 W/m2 unknown
10:44 69.8 °F 66.2 °F 29.8 in ENE 10.6 mph 14.9 mph 90% 0 in 111.00 W/m2 unknown
10:49 69.8 °F 66.2 °F 29.8 in ENE 11.8 mph 18.6 mph 89% 0 in 149.00 W/m2 unknown
10:54 69.8 °F 66.2 °F 29.8 in ENE 13 mph 18 mph 89% 0 in 149.00 W/m2 unknown
10:59 71.6 °F 68 °F 29.8 in ENE 14.3 mph 18.6 mph 88% 0 in 130.00 W/m2 unknown
11:04 71.6 °F 68 °F 29.8 in East 9.9 mph 18 mph 88% 0 in 77.00 W/m2 unknown
11:09 71.6 °F 68 °F 29.8 in ESE 9.3 mph 13 mph 88% 0 in 30.00 W/m2 unknown
11:14 69.8 °F 66.2 °F 29.8 in East 11.2 mph 14.9 mph 88% 0 in 19.00 W/m2 unknown
11:18 69.8 °F 66.2 °F 29.8 in East 13.7 mph 19.9 mph 88% 0 in 12.00 W/m2 unknown
11:24 71.6 °F 66.2 °F 29.8 in East 13 mph 19.9 mph 87% 0 in 9.00 W/m2 unknown
11:29 71.6 °F 66.2 °F 29.8 in East 14.3 mph 21.1 mph 87% 0 in 9.00 W/m2 unknown
11:34 71.6 °F 66.2 °F 29.8 in East 13.7 mph 21.1 mph 86% 0.01 in 7.00 W/m2 unknown
11:39 71.6 °F 66.2 °F 29.8 in ESE 16.8 mph 25.5 mph 87% 0.02 in 5.00 W/m2 unknown
11:44 69.8 °F 66.2 °F 29.8 in South 14.9 mph 24.9 mph 88% 0.09 in 0.00 W/m2 unknown
11:49 69.8 °F 66.2 °F 29.9 in South 23 mph 36 mph 90% 0.21 in 0.00 W/m2 unknown
11:54 69.8 °F 66.2 °F 29.9 in ESE 15.5 mph 21.7 mph 91% 0.47 in 0.00 W/m2 unknown
11:59 68 °F 66.2 °F 29.9 in ENE 17.4 mph 25.5 mph 91% 0.66 in 12.00 W/m2 unknown
12:04 68 °F 66.2 °F 29.9 in SSE 14.9 mph 25.5 mph 92% 0.67 in 7.00 W/m2 unknown
12:09 68 °F 66.2 °F 29.9 in East 11.2 mph 24.9 mph 92% 0.78 in 9.00 W/m2 unknown
12:14 68 °F 66.2 °F 29.8 in NE 10.6 mph 14.9 mph 92% 0.83 in 7.00 W/m2 unknown
12:19 68 °F 66.2 °F 29.8 in NE 9.9 mph 14.3 mph 92% 0.86 in 7.00 W/m2 unknown
12:24 68 °F 66.2 °F 29.8 in NNE 11.2 mph 18.6 mph 92% 0.86 in 9.00 W/m2 unknown
12:29 68 °F 66.2 °F 29.8 in NE 13 mph 18 mph 92% 0.87 in 14.00 W/m2 unknown
12:34 68 °F 66.2 °F 29.8 in NE 11.8 mph 16.8 mph 93% 0.87 in 25.00 W/m2 unknown
12:39 68 °F 66.2 °F 29.8 in NE 6.8 mph 14.3 mph 93% 0.88 in 44.00 W/m2 unknown
12:44 68 °F 66.2 °F 29.8 in NE 6.2 mph 8.7 mph 93% 0.88 in 79.00 W/m2 unknown
12:49 68 °F 66.2 °F 29.8 in NE 3.7 mph 8.1 mph 93% 0.81 in 105.00 W/m2 unknown
12:54 69.8 °F 66.2 °F 29.8 in NNE 2.5 mph 5 mph 94% 0.64 in 130.00 W/m2 unknown
12:59 69.8 °F 68 °F 29.8 in NNE 5 mph 6.2 mph 94% 0.39 in 160.00 W/m2 unknown
13:04 69.8 °F 68 °F 29.8 in ENE 5 mph 6.8 mph 94% 0.26 in 299.00 W/m2 unknown
13:09 69.8 °F 68 °F 29.8 in NE 7.5 mph 10.6 mph 94% 0.21 in 522.00 W/m2 unknown
13:14 69.8 °F 69.8 °F 29.8 in NE 11.2 mph 11.8 mph 94% 0.14 in 624.00 W/m2 unknown
13:19 71.6 °F 69.8 °F 29.8 in NNE 11.2 mph 18.6 mph 94% 0.09 in 610.00 W/m2 unknown
13:24 71.6 °F 69.8 °F 29.7 in NNE 16.8 mph 24.2 mph 94% 0.06 in 610.00 W/m2 unknown
13:29 71.6 °F 69.8 °F 29.7 in NE 13 mph 24.2 mph 93% 0.06 in 707.00 W/m2 unknown
13:34 71.6 °F 69.8 °F 29.7 in ENE 13 mph 21.1 mph 92% 0.06 in 707.00 W/m2 unknown
13:39 71.6 °F 69.8 °F 29.7 in ENE 11.8 mph 21.1 mph 91% 0.05 in 742.00 W/m2 unknown
13:44 73.4 °F 69.8 °F 29.7 in ENE 13.7 mph 17.4 mph 91% 0.03 in 758.00 W/m2 unknown
13:49 73.4 °F 69.8 °F 29.8 in ENE 10.6 mph 16.8 mph 90% 0.02 in 633.00 W/m2 unknown
13:54 73.4 °F 69.8 °F 29.8 in East 9.3 mph 16.2 mph 89% 0.02 in 592.00 W/m2 unknown
13:59 75.2 °F 71.6 °F 29.8 in East 8.7 mph 11.8 mph 89% 0.01 in 770.00 W/m2 unknown
14:04 75.2 °F 71.6 °F 29.8 in East 8.1 mph 11.8 mph 87% 0 in 874.00 W/m2 unknown
14:09 75.2 °F 71.6 °F 29.8 in East 9.3 mph 13 mph 86% 0 in 928.00 W/m2 unknown
14:14 77 °F 71.6 °F 29.8 in ENE 9.3 mph 13 mph 84% 0 in 932.00 W/m2 unknown
14:19 77 °F 71.6 °F 29.8 in NE 8.7 mph 13 mph 84% 0 in 888.00 W/m2 unknown
14:24 75.2 °F 71.6 °F 29.8 in ENE 9.9 mph 14.3 mph 84% 0 in 464.00 W/m2 unknown
14:29 75.2 °F 69.8 °F 29.8 in ENE 8.7 mph 14.3 mph 84% 0 in 285.00 W/m2 unknown
14:34 75.2 °F 69.8 °F 29.8 in ENE 8.1 mph 10.6 mph 84% 0 in 204.00 W/m2 unknown
14:39 75.2 °F 69.8 °F 29.8 in ENE 7.5 mph 10.6 mph 85% 0 in 69.00 W/m2 unknown
14:44 73.4 °F 69.8 °F 29.8 in East 6.2 mph 9.9 mph 86% 0 in 90.00 W/m2 unknown
14:49 73.4 °F 69.8 °F 29.8 in East 9.9 mph 13 mph 86% 0 in 90.00 W/m2 unknown
14:54 73.4 °F 69.8 °F 29.8 in East 9.3 mph 14.9 mph 85% 0 in 120.00 W/m2 unknown
14:59 73.4 °F 69.8 °F 29.8 in East 9.9 mph 14.3 mph 86% 0 in 151.00 W/m2 unknown
15:04 73.4 °F 69.8 °F 29.8 in East 10.6 mph 14.3 mph 87% 0 in 257.00 W/m2 unknown
15:09 73.4 °F 69.8 °F 29.8 in East 9.3 mph 14.9 mph 86% 0 in 454.00 W/m2 unknown
15:14 75.2 °F 71.6 °F 29.8 in East 9.3 mph 14.9 mph 87% 0 in 851.00 W/m2 unknown
15:19 75.2 °F 71.6 °F 29.8 in East 11.8 mph 16.2 mph 85% 0 in 831.00 W/m2 unknown
15:24 77 °F 71.6 °F 29.8 in East 11.2 mph 16.2 mph 85% 0 in 831.00 W/m2 unknown
15:29 77 °F 71.6 °F 29.8 in East 11.2 mph 14.3 mph 84% 0 in 315.00 W/m2 unknown
15:34 75.2 °F 69.8 °F 29.8 in East 9.9 mph 14.3 mph 84% 0 in 315.00 W/m2 unknown
15:39 75.2 °F 71.6 °F 29.8 in East 9.9 mph 14.3 mph 85% 0 in 309.00 W/m2 unknown
15:44 75.2 °F 71.6 °F 29.8 in East 8.1 mph 14.3 mph 85% 0 in 343.00 W/m2 unknown
15:49 75.2 °F 71.6 °F 29.8 in East 9.9 mph 13 mph 84% 0 in 183.00 W/m2 unknown
15:54 75.2 °F 69.8 °F 29.8 in ENE 9.3 mph 13 mph 85% 0 in 244.00 W/m2 unknown
15:59 77 °F 71.6 °F 29.8 in East 8.7 mph 13 mph 85% 0 in 392.00 W/m2 unknown
16:04 77 °F 71.6 °F 29.8 in East 10.6 mph 13 mph 85% 0 in 392.00 W/m2 unknown
16:09 75.2 °F 69.8 °F 29.8 in ENE 10.6 mph 14.3 mph 85% 0 in 132.00 W/m2 unknown
16:14 75.2 °F 69.8 °F 29.8 in ENE 9.3 mph 14.3 mph 86% 0 in 104.00 W/m2 unknown
16:19 75.2 °F 69.8 °F 29.8 in ENE 11.2 mph 14.9 mph 85% 0 in 186.00 W/m2 unknown
16:24 75.2 °F 69.8 °F 29.8 in ENE 11.8 mph 16.2 mph 85% 0 in 186.00 W/m2 unknown
16:29 75.2 °F 69.8 °F 29.8 in ENE 10.6 mph 16.2 mph 84% 0 in 155.00 W/m2 unknown
16:34 75.2 °F 69.8 °F 29.8 in East 11.2 mph 14.9 mph 84% 0 in 153.00 W/m2 unknown
16:39 75.2 °F 69.8 °F 29.8 in ENE 12.4 mph 18.6 mph 84% 0 in 72.00 W/m2 unknown
16:44 73.4 °F 69.8 °F 29.8 in ENE 12.4 mph 18 mph 84% 0 in 93.00 W/m2 unknown
16:49 73.4 °F 68 °F 29.8 in ENE 9.9 mph 16.8 mph 84% 0 in 93.00 W/m2 unknown
16:54 73.4 °F 68 °F 29.8 in East 11.2 mph 16.2 mph 84% 0 in 93.00 W/m2 unknown
16:59 73.4 °F 68 °F 29.8 in ENE 10.6 mph 16.2 mph 84% 0 in 107.00 W/m2 unknown
17:04 73.4 °F 68 °F 29.8 in East 10.6 mph 16.2 mph 84% 0 in 116.00 W/m2 unknown
17:09 73.4 °F 68 °F 29.8 in East 9.9 mph 16.2 mph 84% 0 in 213.00 W/m2 unknown
17:14 75.2 °F 68 °F 29.8 in East 9.3 mph 14.9 mph 83% 0 in 213.00 W/m2 unknown
17:19 75.2 °F 68 °F 29.8 in East 8.7 mph 14.9 mph 81% 0 in 200.00 W/m2 unknown
17:24 75.2 °F 68 °F 29.8 in East 6.8 mph 11.8 mph 81% 0 in 141.00 W/m2 unknown
17:29 75.2 °F 68 °F 29.8 in ESE 7.5 mph 10.6 mph 82% 0 in 141.00 W/m2 unknown
17:34 73.4 °F 68 °F 29.8 in East 6.2 mph 9.9 mph 82% 0 in 220.00 W/m2 unknown
17:39 75.2 °F 69.8 °F 29.8 in East 6.8 mph 9.3 mph 82% 0 in 383.00 W/m2 unknown
17:44 75.2 °F 69.8 °F 29.8 in ESE 7.5 mph 9.3 mph 82% 0 in 383.00 W/m2 unknown
17:49 75.2 °F 69.8 °F 29.8 in East 6.8 mph 8.7 mph 80% 0 in 255.00 W/m2 unknown
17:54 75.2 °F 69.8 °F 29.8 in ENE 8.1 mph 11.8 mph 80% 0 in 294.00 W/m2 unknown
17:59 75.2 °F 68 °F 29.8 in ENE 8.1 mph 11.8 mph 79% 0 in 294.00 W/m2 unknown
18:04 75.2 °F 68 °F 29.8 in East 6.8 mph 11.8 mph 79% 0 in 352.00 W/m2 unknown
18:09 75.2 °F 69.8 °F 29.8 in East 5.6 mph 11.8 mph 79% 0 in 403.00 W/m2 unknown
18:14 77 °F 69.8 °F 29.8 in ENE 6.2 mph 9.3 mph 79% 0 in 408.00 W/m2 unknown
18:19 77 °F 69.8 °F 29.8 in East 6.8 mph 9.3 mph 79% 0 in 371.00 W/m2 unknown
18:24 77 °F 69.8 °F 29.8 in ENE 7.5 mph 13 mph 79% 0 in 371.00 W/m2 unknown
18:29 77 °F 68 °F 29.8 in ENE 8.7 mph 13 mph 79% 0 in 104.00 W/m2 unknown
18:34 75.2 °F 69.8 °F 29.8 in ENE 5 mph 13 mph 80% 0 in 202.00 W/m2 unknown
18:39 75.2 °F 69.8 °F 29.8 in ENE 5 mph 8.1 mph 81% 0 in 202.00 W/m2 unknown
18:44 75.2 °F 69.8 °F 29.8 in ENE 5.6 mph 8.1 mph 81% 0 in 160.00 W/m2 unknown
18:49 75.2 °F 68 °F 29.8 in ENE 6.2 mph 8.1 mph 80% 0 in 105.00 W/m2 unknown
18:54 75.2 °F 68 °F 29.8 in NE 5 mph 8.1 mph 80% 0 in 72.00 W/m2 unknown
18:59 75.2 °F 68 °F 29.8 in NE 5.6 mph 6.8 mph 80% 0 in 77.00 W/m2 unknown
19:04 75.2 °F 68 °F 29.8 in NE 7.5 mph 10.6 mph 81% 0 in 83.00 W/m2 unknown
19:09 75.2 °F 68 °F 29.8 in NE 8.7 mph 13 mph 82% 0 in 105.00 W/m2 unknown
19:14 75.2 °F 68 °F 29.8 in ENE 9.9 mph 13 mph 81% 0 in 104.00 W/m2 unknown
19:19 73.4 °F 68 °F 29.8 in ENE 9.3 mph 13 mph 81% 0 in 90.00 W/m2 unknown
19:24 73.4 °F 68 °F 29.8 in NE 6.2 mph 13 mph 82% 0 in 95.00 W/m2 unknown
19:29 73.4 °F 68 °F 29.8 in NE 7.5 mph 9.3 mph 82% 0 in 91.00 W/m2 unknown
19:34 73.4 °F 68 °F 29.8 in NE 6.8 mph 9.3 mph 82% 0 in 72.00 W/m2 unknown
19:39 73.4 °F 68 °F 29.8 in ENE 5.6 mph 8.7 mph 82% 0 in 72.00 W/m2 unknown
19:44 73.4 °F 68 °F 29.8 in ENE 6.2 mph 8.1 mph 82% 0 in 65.00 W/m2 unknown
19:49 73.4 °F 68 °F 29.8 in East 5 mph 6.8 mph 82% 0 in 70.00 W/m2 unknown
19:54 73.4 °F 68 °F 29.8 in East 5 mph 8.1 mph 82% 0 in 70.00 W/m2 unknown
19:59 73.4 °F 68 °F 29.8 in East 5 mph 8.1 mph 83% 0 in 62.00 W/m2 unknown
20:04 73.4 °F 68 °F 29.8 in East 4.3 mph 6.8 mph 83% 0 in 56.00 W/m2 unknown
20:09 73.4 °F 68 °F 29.8 in East 3.7 mph 6.8 mph 83% 0 in 42.00 W/m2 unknown
20:14 73.4 °F 68 °F 29.8 in ENE 3.7 mph 6.8 mph 83% 0 in 26.00 W/m2 unknown
20:19 73.4 °F 68 °F 29.8 in ENE 4.3 mph 6.8 mph 83% 0 in 19.00 W/m2 unknown
20:24 73.4 °F 68 °F 29.8 in ENE 4.3 mph 6.2 mph 84% 0 in 7.00 W/m2 unknown
20:29 73.4 °F 68 °F 29.8 in East 2.5 mph 6.2 mph 84% 0 in 0.00 W/m2 unknown
20:34 73.4 °F 68 °F 29.8 in ENE 1.9 mph 3.7 mph 84% 0 in 0.00 W/m2 unknown
20:39 73.4 °F 68 °F 29.8 in NE 2.5 mph 3.7 mph 85% 0 in 0.00 W/m2 unknown
20:44 71.6 °F 68 °F 29.8 in NE 1.2 mph 3.1 mph 85% 0 in 0.00 W/m2 unknown
20:49 71.6 °F 68 °F 29.8 in NE 0.6 mph 1.9 mph 85% 0 in 0.00 W/m2 unknown
20:54 71.6 °F 68 °F 29.8 in NE 0.6 mph 2.5 mph 85% 0 in 0.00 W/m2 unknown
20:59 71.6 °F 68 °F 29.8 in Calm   1.9 mph 85% 0 in 0.00 W/m2 unknown
21:04 71.6 °F 68 °F 29.8 in Calm     86% 0 in 0.00 W/m2 unknown
21:09 71.6 °F 68 °F 29.8 in Calm   1.2 mph 87% 0 in 0.00 W/m2 unknown
21:14 71.6 °F 68 °F 29.8 in NE 1.2 mph 2.5 mph 87% 0 in 0.00 W/m2 unknown
21:19 71.6 °F 68 °F 29.8 in NE 1.9 mph 3.7 mph 88% 0 in 0.00 W/m2 unknown
21:24 71.6 °F 68 °F 29.8 in NE 2.5 mph 3.7 mph 88% 0 in 0.00 W/m2 unknown
21:29 71.6 °F 68 °F 29.8 in NE 2.5 mph 3.7 mph 88% 0 in 0.00 W/m2 unknown
21:34 71.6 °F 68 °F 29.8 in NE 1.9 mph 3.1 mph 88% 0 in 0.00 W/m2 unknown
21:39 71.6 °F 66.2 °F 29.8 in East 1.9 mph 3.1 mph 87% 0 in 0.00 W/m2 unknown
21:44 71.6 °F 66.2 °F 29.8 in ENE 4.3 mph 6.2 mph 87% 0 in 0.00 W/m2 unknown
21:49 71.6 °F 66.2 °F 29.8 in NE 3.1 mph 6.2 mph 86% 0 in 0.00 W/m2 unknown
21:54 71.6 °F 68 °F 29.8 in NE 1.9 mph 3.7 mph 86% 0 in 0.00 W/m2 unknown
21:59 71.6 °F 68 °F 29.8 in NE 0.6 mph 3.1 mph 86% 0 in 0.00 W/m2 unknown
22:04 71.6 °F 68 °F 29.8 in NW 1.9 mph 3.1 mph 86% 0 in 0.00 W/m2 unknown
22:09 71.6 °F 68 °F 29.8 in West 1.9 mph 3.7 mph 86% 0 in 0.00 W/m2 unknown
22:14 71.6 °F 68 °F 29.8 in West 1.2 mph 3.1 mph 86% 0 in 0.00 W/m2 unknown
22:19 71.6 °F 68 °F 29.8 in West 1.2 mph 2.5 mph 86% 0 in 0.00 W/m2 unknown
22:24 71.6 °F 68 °F 29.8 in West 1.2 mph 2.5 mph 86% 0 in 0.00 W/m2 unknown
22:29 71.6 °F 68 °F 29.8 in West 0.6 mph 1.9 mph 87% 0 in 0.00 W/m2 unknown
22:34 71.6 °F 68 °F 29.8 in WNW 1.2 mph 2.5 mph 87% 0 in 0.00 W/m2 unknown
22:39 71.6 °F 68 °F 29.8 in WNW 1.2 mph 2.5 mph 87% 0 in 0.00 W/m2 unknown
22:44 71.6 °F 68 °F 29.8 in Calm   1.9 mph 87% 0 in 0.00 W/m2 unknown
22:49 71.6 °F 68 °F 29.8 in Calm   1.2 mph 87% 0 in 0.00 W/m2 unknown
22:54 71.6 °F 68 °F 29.8 in Calm     87% 0 in 0.00 W/m2 unknown
22:59 71.6 °F 68 °F 29.8 in Calm     87% 0 in 0.00 W/m2 unknown
23:04 71.6 °F 68 °F 29.8 in WNW 1.2 mph 3.1 mph 87% 0 in 0.00 W/m2 unknown
23:09 71.6 °F 68 °F 29.8 in West 2.5 mph 3.7 mph 88% 0 in 0.00 W/m2 unknown
23:14 71.6 °F 68 °F 29.8 in WNW 3.1 mph 3.7 mph 89% 0 in 0.00 W/m2 unknown
23:19 71.6 °F 68 °F 29.8 in WNW 1.2 mph 3.1 mph 88% 0 in 0.00 W/m2 unknown
23:24 71.6 °F 68 °F 29.8 in West 2.5 mph 3.7 mph 89% 0 in 0.00 W/m2 unknown
23:29 71.6 °F 68 °F 29.8 in NW 3.1 mph 5 mph 89% 0 in 0.00 W/m2 unknown
23:34 71.6 °F 68 °F 29.8 in WNW 6.8 mph 8.1 mph 89% 0 in 0.00 W/m2 unknown
23:39 69.8 °F 68 °F 29.8 in NW 6.8 mph 8.1 mph 89% 0 in 0.00 W/m2 unknown
23:44 69.8 °F 68 °F 29.8 in NE 3.7 mph 5 mph 89% 0 in 0.00 W/m2 unknown
23:49 69.8 °F 68 °F 29.8 in WNW 4.3 mph 6.8 mph 89% 0 in 0.00 W/m2 unknown
23:54 69.8 °F 66.2 °F 29.8 in WNW 5 mph 6.8 mph 88% 0 in 0.00 W/m2 unknown
23:59 69.8 °F 66.2 °F 29.8 in WNW 5 mph 6.8 mph 88% 0 in 0.00 W/m2 unknown
Stazione Meteorologica MeteoMincio Rivalta s/M (MN)
Con i complimenti di Weather Underground - 2 mb



METEO PILLOLE
Gelicidio più duraturo
Connecticut, USA
Nell'inverno del 1969 il vetrone ricoprì il paesaggio per ben sei settimane.
Share

Non seguire questo link o sarai bannato dal sito!